createdAt,value
2022-09-28T00:02:09.632Z,85.36
2022-09-28T00:05:13.172Z,85.32
2022-09-28T00:08:17.475Z,85.60
2022-09-28T00:11:22.037Z,85.52
2022-09-28T00:14:25.213Z,85.56
2022-09-28T00:17:28.254Z,85.52
2022-09-28T00:20:31.238Z,85.79
2022-09-28T00:23:56.777Z,85.70
2022-09-28T00:27:01.648Z,85.81
2022-09-28T00:30:05.069Z,85.93
2022-09-28T00:33:07.996Z,86.04
2022-09-28T00:36:10.652Z,86.48
2022-09-28T00:39:16.873Z,86.56
2022-09-28T00:42:21.129Z,86.50
2022-09-28T00:45:26.756Z,86.38
2022-09-28T00:48:33.991Z,86.66
2022-09-28T00:51:39.342Z,87.04
2022-09-28T00:54:46.925Z,87.12
2022-09-28T00:57:55.553Z,86.99
2022-09-28T01:01:00.042Z,87.61
2022-09-28T01:04:05.229Z,87.71
2022-09-28T01:07:10.116Z,87.70
2022-09-28T01:10:15.487Z,87.81
2022-09-28T01:13:19.827Z,87.69
2022-09-28T01:16:32.358Z,87.94
2022-09-28T01:20:07.806Z,87.94
2022-09-28T01:23:30.368Z,87.83
2022-09-28T01:26:47.998Z,88.21
2022-09-28T01:29:58.038Z,88.24
2022-09-28T01:33:07.331Z,88.51
2022-09-28T01:36:14.878Z,88.65
2022-09-28T01:39:22.834Z,88.67
2022-09-28T01:42:32.436Z,89.00
2022-09-28T01:45:42.962Z,89.16
2022-09-28T01:48:52.049Z,89.22
2022-09-28T01:52:02.439Z,89.07
2022-09-28T01:55:11.703Z,89.54
2022-09-28T01:58:20.265Z,89.43
2022-09-28T02:01:28.205Z,89.60
2022-09-28T02:04:36.068Z,89.94
2022-09-28T02:07:42.800Z,90.13
2022-09-28T02:10:52.807Z,90.59
2022-09-28T02:14:02.003Z,90.94
2022-09-28T02:17:05.498Z,91.44
2022-09-28T02:20:10.290Z,91.37
2022-09-28T02:23:13.085Z,91.09
2022-09-28T02:26:20.221Z,90.97
2022-09-28T02:29:25.002Z,90.88
2022-09-28T02:32:29.838Z,90.44
2022-09-28T02:35:35.361Z,90.67
2022-09-28T02:38:39.297Z,90.46
2022-09-28T02:41:55.867Z,90.49
2022-09-28T02:45:13.843Z,90.43
2022-09-28T02:48:42.761Z,90.76
2022-09-28T02:51:57.463Z,90.42
2022-09-28T02:55:25.158Z,90.56
2022-09-28T02:58:41.335Z,90.43
2022-09-28T03:01:59.468Z,90.69
2022-09-28T03:05:15.208Z,90.85
2022-09-28T03:08:24.665Z,90.79
2022-09-28T03:11:33.505Z,90.74
2022-09-28T03:14:36.770Z,90.74
2022-09-28T03:17:41.485Z,91.12
2022-09-28T03:20:44.501Z,91.10
2022-09-28T03:23:48.411Z,91.11
2022-09-28T03:26:51.099Z,91.24
2022-09-28T03:29:53.768Z,91.36
2022-09-28T03:33:02.479Z,91.22
2022-09-28T03:36:05.555Z,91.30
2022-09-28T03:39:08.564Z,91.21
2022-09-28T03:42:11.305Z,91.25
2022-09-28T03:45:14.472Z,91.32
2022-09-28T03:48:23.171Z,91.61
2022-09-28T03:51:27.460Z,91.45
2022-09-28T03:54:30.252Z,91.43
2022-09-28T03:57:33.425Z,91.40
2022-09-28T04:00:36.439Z,91.66
2022-09-28T04:03:40.792Z,91.64
2022-09-28T04:06:43.789Z,91.41
2022-09-28T04:09:46.429Z,91.44
2022-09-28T04:12:50.270Z,91.73
2022-09-28T04:15:54.519Z,91.42
2022-09-28T04:18:59.446Z,91.56
2022-09-28T04:22:02.666Z,92.28
2022-09-28T04:25:06.013Z,92.42
2022-09-28T04:28:27.731Z,92.40
2022-09-28T04:31:30.815Z,92.40
2022-09-28T04:34:37.869Z,92.69
2022-09-28T04:37:42.821Z,92.51
2022-09-28T04:40:45.881Z,92.66
2022-09-28T04:43:49.000Z,93.60
2022-09-28T04:46:52.123Z,94.52
2022-09-28T04:49:56.101Z,97.04
2022-09-28T04:52:59.097Z,98.01
2022-09-28T04:56:04.142Z,98.18
2022-09-28T04:59:07.047Z,99.05
2022-09-28T05:02:09.754Z,99.03
2022-09-28T05:05:14.017Z,99.03
2022-09-28T05:08:17.075Z,98.91
2022-09-28T05:11:21.352Z,98.72
2022-09-28T05:14:24.866Z,98.97
2022-09-28T05:17:27.542Z,98.71
2022-09-28T05:20:32.685Z,98.71
2022-09-28T05:23:35.342Z,98.70
2022-09-28T05:26:38.078Z,98.55
2022-09-28T05:29:40.750Z,98.76
2022-09-28T05:32:44.620Z,98.13
2022-09-28T05:35:53.354Z,98.21
2022-09-28T05:38:57.728Z,99.16
2022-09-28T05:42:00.359Z,99.60
2022-09-28T05:45:04.740Z,100.00
2022-09-28T05:48:07.468Z,100.00
2022-09-28T05:51:12.423Z,100.00
2022-09-28T05:54:15.533Z,97.68
2022-09-28T05:57:18.740Z,97.01
2022-09-28T06:00:21.390Z,96.62
2022-09-28T06:03:25.178Z,96.53
2022-09-28T06:06:29.170Z,96.03
2022-09-28T06:09:32.273Z,96.34
2022-09-28T06:12:35.595Z,94.79
2022-09-28T06:15:39.067Z,94.25
2022-09-28T06:18:42.905Z,92.88
2022-09-28T06:21:48.333Z,91.21
2022-09-28T06:24:51.386Z,89.30
2022-09-28T06:27:58.740Z,89.58
2022-09-28T06:31:02.536Z,89.74
2022-09-28T06:34:06.003Z,88.54
2022-09-28T06:37:09.994Z,89.08
2022-09-28T06:40:12.800Z,88.63
2022-09-28T06:43:16.529Z,87.85
2022-09-28T06:46:20.839Z,87.77
2022-09-28T06:49:23.860Z,88.20
2022-09-28T06:52:28.233Z,87.96
2022-09-28T06:55:31.563Z,88.46
2022-09-28T06:58:34.655Z,87.58
2022-09-28T07:01:37.687Z,88.00
2022-09-28T07:04:42.132Z,88.74
2022-09-28T07:07:46.164Z,88.86
2022-09-28T07:10:56.275Z,88.98
2022-09-28T07:13:59.053Z,88.90
2022-09-28T07:17:13.285Z,89.23
2022-09-28T07:20:19.426Z,89.17
2022-09-28T07:23:24.268Z,89.21
2022-09-28T07:26:26.960Z,88.73
2022-09-28T07:29:29.623Z,89.06
2022-09-28T07:32:34.883Z,89.24
2022-09-28T07:35:37.558Z,88.90
2022-09-28T07:38:41.802Z,88.65
2022-09-28T07:41:44.879Z,88.18
2022-09-28T07:44:47.739Z,87.55
2022-09-28T07:47:50.951Z,86.79
2022-09-28T07:50:56.765Z,85.72
2022-09-28T07:54:01.598Z,85.98
2022-09-28T07:57:04.270Z,85.53
2022-09-28T08:00:09.042Z,85.12
2022-09-28T08:03:11.711Z,84.06
2022-09-28T08:06:17.070Z,81.58
2022-09-28T08:09:21.248Z,81.93
2022-09-28T08:12:23.928Z,79.10
2022-09-28T08:15:27.580Z,79.51
2022-09-28T08:18:30.488Z,77.47
2022-09-28T08:21:47.739Z,78.23
2022-09-28T08:24:51.772Z,76.25
2022-09-28T08:27:56.816Z,75.21
2022-09-28T08:31:01.978Z,73.96
2022-09-28T08:34:05.268Z,74.76
2022-09-28T08:37:09.510Z,74.11
2022-09-28T08:40:19.921Z,72.49
2022-09-28T08:43:39.651Z,72.75
2022-09-28T08:46:46.809Z,72.85
2022-09-28T08:49:51.018Z,73.36
2022-09-28T08:52:58.408Z,74.26
2022-09-28T08:56:07.158Z,74.17
2022-09-28T08:59:14.302Z,73.01
2022-09-28T09:02:22.327Z,71.12
2022-09-28T09:05:43.772Z,71.16
2022-09-28T09:09:00.092Z,69.47
2022-09-28T09:12:11.799Z,70.12
2022-09-28T09:15:30.210Z,68.71
2022-09-28T09:18:38.505Z,69.29
2022-09-28T09:21:42.868Z,67.60
2022-09-28T09:24:51.585Z,67.48
2022-09-28T09:28:09.455Z,68.48
2022-09-28T09:31:27.139Z,67.12
2022-09-28T09:35:00.144Z,66.63
2022-09-28T09:38:16.204Z,67.30
2022-09-28T09:41:33.730Z,66.57
2022-09-28T09:44:55.078Z,68.72
2022-09-28T09:48:01.690Z,68.04
2022-09-28T09:51:14.041Z,68.34
2022-09-28T09:54:25.485Z,68.62
2022-09-28T09:57:33.223Z,67.61
2022-09-28T10:00:40.890Z,67.62
2022-09-28T10:03:46.393Z,67.44
2022-09-28T10:06:52.672Z,67.78
2022-09-28T10:09:59.257Z,67.20
2022-09-28T10:13:02.703Z,66.56
2022-09-28T10:16:08.071Z,65.68
2022-09-28T10:19:13.451Z,66.73
2022-09-28T10:22:21.774Z,64.29
2022-09-28T10:25:25.263Z,65.64
2022-09-28T10:28:36.667Z,65.97
2022-09-28T10:31:43.052Z,66.09
2022-09-28T10:34:50.185Z,65.86
2022-09-28T10:37:59.388Z,66.39
2022-09-28T10:41:10.331Z,66.98
2022-09-28T10:44:18.888Z,66.71
2022-09-28T10:47:25.263Z,67.96
2022-09-28T10:50:29.485Z,67.73
2022-09-28T10:53:32.456Z,67.20
2022-09-28T10:56:38.498Z,66.59
2022-09-28T10:59:43.080Z,66.62
2022-09-28T11:02:47.396Z,66.33
2022-09-28T11:05:58.896Z,65.57
2022-09-28T11:09:04.606Z,64.05
2022-09-28T11:12:14.782Z,64.12
2022-09-28T11:15:20.247Z,62.66
2022-09-28T11:18:29.625Z,59.79
2022-09-28T11:21:43.302Z,61.63
2022-09-28T11:24:45.991Z,62.55
2022-09-28T11:27:58.210Z,61.56
2022-09-28T11:31:02.586Z,62.90
2022-09-28T11:34:15.888Z,62.90
2022-09-28T11:37:40.229Z,63.08
2022-09-28T11:40:55.447Z,62.69
2022-09-28T11:44:12.997Z,62.58
2022-09-28T11:47:34.501Z,61.32
2022-09-28T11:50:47.774Z,60.48
2022-09-28T11:53:53.771Z,59.92
2022-09-28T11:57:00.874Z,58.08
2022-09-28T12:00:08.391Z,58.53
2022-09-28T12:03:16.161Z,58.40
2022-09-28T12:06:26.267Z,58.30
2022-09-28T12:09:40.169Z,58.15
2022-09-28T12:12:49.040Z,58.12
2022-09-28T12:16:38.464Z,56.82
2022-09-28T12:19:25.899Z,57.08
2022-09-28T12:22:36.452Z,57.08
2022-09-28T12:25:46.207Z,55.84
2022-09-28T12:28:51.443Z,53.93
2022-09-28T12:32:02.720Z,53.92
2022-09-28T12:35:12.824Z,54.22
2022-09-28T12:38:39.816Z,54.19
2022-09-28T12:41:55.981Z,55.91
2022-09-28T12:45:18.920Z,55.55
2022-09-28T12:49:03.033Z,56.30
2022-09-28T12:52:27.957Z,56.54
2022-09-28T12:55:52.169Z,56.08
2022-09-28T12:59:07.550Z,56.42
2022-09-28T13:02:38.432Z,56.22
2022-09-28T13:06:09.805Z,54.78
2022-09-28T13:09:20.515Z,54.90
2022-09-28T13:12:35.921Z,54.26
2022-09-28T13:15:49.036Z,53.70
2022-09-28T13:19:01.721Z,54.04
2022-09-28T13:22:26.088Z,53.70
2022-09-28T13:25:32.604Z,54.31
2022-09-28T13:28:38.325Z,54.08
2022-09-28T13:31:45.713Z,54.71
2022-09-28T13:34:51.281Z,54.38
2022-09-28T13:38:27.196Z,54.45
2022-09-28T13:41:32.442Z,54.41
2022-09-28T13:44:55.137Z,54.80
2022-09-28T13:48:14.704Z,54.62
2022-09-28T13:51:32.109Z,55.18
2022-09-28T13:54:54.601Z,54.66
2022-09-28T13:58:01.620Z,54.26
2022-09-28T14:01:11.461Z,53.28
2022-09-28T14:04:19.453Z,52.75
2022-09-28T14:07:25.572Z,52.82
2022-09-28T14:10:52.001Z,53.18
2022-09-28T14:14:07.225Z,52.38
2022-09-28T14:17:54.687Z,52.72
2022-09-28T14:21:36.044Z,53.02
2022-09-28T14:25:04.395Z,50.21
2022-09-28T14:28:26.950Z,46.66
2022-09-28T14:31:31.198Z,47.67
2022-09-28T14:34:36.477Z,48.97
2022-09-28T14:38:00.759Z,49.73
2022-09-28T14:41:12.808Z,48.64
2022-09-28T14:44:17.277Z,48.87
2022-09-28T14:47:35.180Z,50.12
2022-09-28T14:50:39.005Z,49.26
2022-09-28T14:53:43.331Z,48.03
2022-09-28T14:56:57.053Z,48.86
2022-09-28T15:00:01.011Z,48.12
2022-09-28T15:03:11.416Z,46.66
2022-09-28T15:06:16.856Z,46.99
2022-09-28T15:09:29.298Z,47.39
2022-09-28T15:12:32.486Z,47.82
2022-09-28T15:15:38.591Z,47.42
2022-09-28T15:19:04.104Z,48.41
2022-09-28T15:22:15.855Z,49.41
2022-09-28T15:25:21.832Z,50.61
2022-09-28T15:28:25.301Z,50.82
2022-09-28T15:31:31.844Z,50.34
2022-09-28T15:34:54.724Z,51.44
2022-09-28T15:37:57.768Z,51.42
2022-09-28T15:41:04.653Z,51.74
2022-09-28T15:44:32.967Z,52.34
2022-09-28T15:47:40.082Z,52.07
2022-09-28T15:50:58.042Z,52.62
2022-09-28T15:54:04.313Z,52.32
2022-09-28T15:57:30.012Z,52.59
2022-09-28T16:00:33.305Z,53.03
2022-09-28T16:03:35.945Z,53.23
2022-09-28T16:06:38.629Z,53.85
2022-09-28T16:09:55.663Z,54.85
2022-09-28T16:13:15.707Z,55.78
2022-09-28T16:16:18.607Z,56.27
2022-09-28T16:19:25.348Z,57.10
2022-09-28T16:22:28.987Z,58.06
2022-09-28T16:25:31.789Z,58.49
2022-09-28T16:28:52.876Z,59.52
2022-09-28T16:31:55.698Z,62.38
2022-09-28T16:35:23.065Z,65.61
2022-09-28T16:38:25.752Z,66.94
2022-09-28T16:41:30.292Z,68.21
2022-09-28T16:44:35.834Z,69.79
2022-09-28T16:47:39.502Z,70.81
2022-09-28T16:50:42.134Z,71.06
2022-09-28T16:54:02.913Z,71.46
2022-09-28T16:57:07.542Z,71.49
2022-09-28T17:00:19.638Z,71.97
2022-09-28T17:03:23.438Z,72.50
2022-09-28T17:06:27.470Z,72.43
2022-09-28T17:09:30.136Z,72.36
2022-09-28T17:12:32.813Z,72.40
2022-09-28T17:15:37.542Z,72.46
2022-09-28T17:18:40.505Z,72.58
2022-09-28T17:21:43.187Z,73.28
2022-09-28T17:24:46.738Z,73.73
2022-09-28T17:27:50.461Z,74.31
2022-09-28T17:30:55.050Z,74.48
2022-09-28T17:33:58.464Z,74.99
2022-09-28T17:37:01.288Z,75.68
2022-09-28T17:40:13.708Z,76.13
2022-09-28T17:43:16.346Z,76.29
2022-09-28T17:46:28.470Z,76.59
2022-09-28T17:49:31.165Z,76.95
2022-09-28T17:52:33.887Z,77.53
2022-09-28T17:55:38.280Z,77.58
2022-09-28T17:58:41.927Z,77.86
2022-09-28T18:01:48.643Z,78.27
2022-09-28T18:04:52.768Z,78.45
2022-09-28T18:07:58.942Z,78.80
2022-09-28T18:11:03.471Z,79.09
2022-09-28T18:14:11.070Z,79.10
2022-09-28T18:17:21.796Z,79.40
2022-09-28T18:20:25.151Z,79.69
2022-09-28T18:23:31.681Z,80.05
2022-09-28T18:26:35.138Z,80.25
2022-09-28T18:29:38.121Z,80.49
2022-09-28T18:32:42.451Z,80.96
2022-09-28T18:36:10.992Z,80.79
2022-09-28T18:39:14.421Z,81.12
2022-09-28T18:42:17.132Z,81.42
2022-09-28T18:45:20.089Z,81.34
2022-09-28T18:48:27.692Z,81.37
2022-09-28T18:51:30.569Z,81.73
2022-09-28T18:54:33.452Z,81.82
2022-09-28T18:57:36.903Z,82.09
2022-09-28T19:00:40.466Z,82.21
2022-09-28T19:03:44.813Z,82.41
2022-09-28T19:06:51.742Z,82.57
2022-09-28T19:09:54.489Z,82.42
2022-09-28T19:12:57.420Z,82.80
2022-09-28T19:16:00.525Z,83.06
2022-09-28T19:19:06.619Z,83.13
2022-09-28T19:22:09.758Z,83.15
2022-09-28T19:25:13.612Z,83.53
2022-09-28T19:28:16.301Z,83.33
2022-09-28T19:31:19.349Z,83.77
2022-09-28T19:34:24.360Z,83.88
2022-09-28T19:37:27.202Z,83.97
2022-09-28T19:40:30.153Z,84.23
2022-09-28T19:43:34.940Z,84.02
2022-09-28T19:46:40.416Z,84.34
2022-09-28T19:49:44.992Z,84.21
2022-09-28T19:52:47.794Z,84.29
2022-09-28T19:55:52.773Z,84.36
2022-09-28T19:58:55.556Z,84.29
2022-09-28T20:02:01.315Z,84.04
2022-09-28T20:05:06.346Z,84.36
2022-09-28T20:08:09.742Z,84.22
2022-09-28T20:11:13.168Z,84.24
2022-09-28T20:14:16.173Z,84.17
2022-09-28T20:17:19.261Z,84.57
2022-09-28T20:20:23.426Z,86.17
2022-09-28T20:23:27.303Z,86.91
2022-09-28T20:26:30.454Z,87.55
2022-09-28T20:29:33.748Z,88.20
2022-09-28T20:32:36.978Z,88.42
2022-09-28T20:35:44.228Z,89.27
2022-09-28T20:38:48.717Z,89.46
2022-09-28T20:41:51.715Z,89.32
2022-09-28T20:44:54.466Z,89.30
2022-09-28T20:47:57.179Z,89.50
2022-09-28T20:51:03.156Z,89.15
2022-09-28T20:54:06.389Z,89.08
2022-09-28T20:57:17.548Z,88.64
2022-09-28T21:00:20.495Z,88.88
2022-09-28T21:03:23.559Z,88.76
2022-09-28T21:06:29.451Z,88.57
2022-09-28T21:09:33.319Z,88.59
2022-09-28T21:12:37.149Z,88.50
2022-09-28T21:15:39.882Z,88.78
2022-09-28T21:18:43.639Z,89.38
2022-09-28T21:21:48.423Z,89.77
2022-09-28T21:24:51.474Z,89.77
2022-09-28T21:27:54.497Z,90.48
2022-09-28T21:30:57.502Z,90.62
2022-09-28T21:34:00.508Z,91.26
2022-09-28T21:37:04.853Z,91.34
2022-09-28T21:40:10.146Z,91.34
2022-09-28T21:43:13.131Z,91.21
2022-09-28T21:46:15.970Z,90.79
2022-09-28T21:49:18.712Z,90.62
2022-09-28T21:52:23.029Z,90.30
2022-09-28T21:55:26.133Z,90.17
2022-09-28T21:58:31.049Z,89.93
2022-09-28T22:01:34.132Z,90.18
2022-09-28T22:04:36.872Z,90.25
2022-09-28T22:07:42.654Z,90.04
2022-09-28T22:10:45.509Z,90.14
2022-09-28T22:13:50.339Z,90.25
2022-09-28T22:16:53.206Z,90.14
2022-09-28T22:19:56.242Z,90.26
2022-09-28T22:23:00.623Z,90.06
2022-09-28T22:26:08.291Z,90.39
2022-09-28T22:29:11.815Z,90.60
2022-09-28T22:32:14.549Z,90.38
2022-09-28T22:35:17.654Z,90.52
2022-09-28T22:38:24.061Z,91.33
2022-09-28T22:41:27.233Z,91.94
2022-09-28T22:44:30.104Z,92.39
2022-09-28T22:47:32.865Z,92.67
2022-09-28T22:50:35.961Z,92.68
2022-09-28T22:53:40.200Z,93.70
2022-09-28T22:56:44.556Z,94.32
2022-09-28T22:59:47.717Z,94.53
2022-09-28T23:02:50.447Z,94.99
2022-09-28T23:05:54.349Z,95.11
2022-09-28T23:08:58.549Z,95.84
2022-09-28T23:12:01.584Z,96.69
2022-09-28T23:15:04.719Z,97.33
2022-09-28T23:18:08.427Z,97.59
2022-09-28T23:21:15.112Z,97.85
2022-09-28T23:24:19.412Z,97.71
2022-09-28T23:27:22.103Z,98.22
2022-09-28T23:30:25.224Z,98.06
2022-09-28T23:33:28.009Z,97.94
2022-09-28T23:36:31.474Z,98.02
2022-09-28T23:39:35.464Z,98.04
2022-09-28T23:42:38.202Z,97.78
2022-09-28T23:45:42.323Z,97.49
2022-09-28T23:48:44.994Z,97.59
2022-09-28T23:51:48.130Z,97.31
2022-09-28T23:54:52.157Z,97.25
2022-09-28T23:57:56.959Z,97.27
